createdAt,value
2022-08-07T00:00:04.669Z,1013.92
2022-08-07T00:05:04.117Z,1013.72
2022-08-07T00:10:19.562Z,1013.6
2022-08-07T00:15:03.537Z,1013.71
2022-08-07T00:20:04.370Z,1013.71
2022-08-07T00:25:03.193Z,1013.76
2022-08-07T00:30:21.863Z,1013.81
2022-08-07T00:35:03.253Z,1013.83
2022-08-07T00:40:04.355Z,1014.02
2022-08-07T00:45:06.934Z,1014.14
2022-08-07T00:50:17.472Z,1014.15
2022-08-07T00:55:04.533Z,1014.06
2022-08-07T01:00:06.345Z,1014.04
2022-08-07T01:05:03.312Z,1013.98
2022-08-07T01:10:10.991Z,1014.15
2022-08-07T01:15:03.807Z,1014.3
2022-08-07T01:20:04.563Z,1014.67
2022-08-07T01:25:05.287Z,1015.04
2022-08-07T01:30:05.273Z,1015.2
2022-08-07T01:35:03.325Z,1015.31
2022-08-07T01:40:04.299Z,1015.42
2022-08-07T01:45:03.205Z,1015.58
2022-08-07T01:50:04.391Z,1015.56
2022-08-07T01:55:03.836Z,1015.66
2022-08-07T02:00:12.740Z,1015.9
2022-08-07T02:05:04.639Z,1016.09
2022-08-07T02:10:09.482Z,1016.07
2022-08-07T02:15:05.939Z,1015.91
2022-08-07T02:20:09.503Z,1015.74
2022-08-07T02:25:07.060Z,1015.56
2022-08-07T02:30:07.259Z,1015.23
2022-08-07T02:35:03.228Z,1015.01
2022-08-07T02:40:12.185Z,1014.79
2022-08-07T02:45:07.412Z,1014.69
2022-08-07T02:50:04.351Z,1014.39
2022-08-07T02:55:03.821Z,1014.34
2022-08-07T03:00:04.829Z,1014.0
2022-08-07T03:05:04.121Z,1014.06
2022-08-07T03:10:04.494Z,1014.02
2022-08-07T03:15:07.635Z,1014.07
2022-08-07T03:20:04.509Z,1014.38
2022-08-07T03:25:03.393Z,1014.62
2022-08-07T03:30:05.223Z,1014.52
2022-08-07T03:35:17.211Z,1014.58
2022-08-07T03:40:14.817Z,1014.54
2022-08-07T03:45:03.336Z,1014.39
2022-08-07T03:50:04.320Z,1014.22
2022-08-07T03:55:06.406Z,1014.21
2022-08-07T04:00:05.350Z,1013.97
2022-08-07T04:05:03.221Z,1013.8
2022-08-07T04:10:07.794Z,1013.85
2022-08-07T04:15:04.910Z,1014.11
2022-08-07T04:20:04.299Z,1014.43
2022-08-07T04:25:03.182Z,1014.71
2022-08-07T04:30:10.357Z,1014.71
2022-08-07T04:35:03.856Z,1014.48
2022-08-07T04:40:04.258Z,1014.38
2022-08-07T04:45:07.978Z,1014.48
2022-08-07T04:50:04.863Z,1014.3
2022-08-07T04:55:15.111Z,1014.06
2022-08-07T05:00:08.179Z,1013.76
2022-08-07T05:05:03.177Z,1013.29
2022-08-07T05:10:04.483Z,1013.55
2022-08-07T05:15:04.150Z,1013.61
2022-08-07T05:20:07.845Z,1013.76
2022-08-07T05:25:08.564Z,1013.9
2022-08-07T05:30:06.416Z,1014.5
2022-08-07T05:35:03.198Z,1013.93
2022-08-07T05:40:06.230Z,1013.82
2022-08-07T05:45:04.563Z,1013.85
2022-08-07T05:50:04.246Z,1013.84
2022-08-07T05:55:07.334Z,1013.38
2022-08-07T06:00:06.234Z,1012.87
2022-08-07T06:05:03.450Z,1012.91
2022-08-07T06:10:06.073Z,1012.69
2022-08-07T06:15:05.430Z,1012.64
2022-08-07T06:20:04.739Z,1012.44
2022-08-07T06:25:03.245Z,1012.45
2022-08-07T06:30:04.631Z,1012.26
2022-08-07T06:35:03.330Z,1012.28
2022-08-07T06:40:12.809Z,1012.36
2022-08-07T06:45:03.233Z,1012.34
2022-08-07T06:50:04.340Z,1012.24
2022-08-07T06:55:30.731Z,1012.33
2022-08-07T07:00:11.513Z,1012.21
2022-08-07T07:05:03.240Z,1012.3
2022-08-07T07:10:04.469Z,1012.27
2022-08-07T07:15:03.628Z,1012.23
2022-08-07T07:20:04.380Z,1012.22
2022-08-07T07:25:14.327Z,1012.25
2022-08-07T07:30:09.525Z,1012.27
2022-08-07T07:35:03.946Z,1012.35
2022-08-07T07:40:04.350Z,1012.0
2022-08-07T07:45:03.367Z,1011.93
2022-08-07T07:50:31.961Z,1012.0
2022-08-07T07:55:03.377Z,1012.2
2022-08-07T08:00:06.346Z,1012.0
2022-08-07T08:05:03.139Z,1012.01
2022-08-07T08:10:05.171Z,1012.08
2022-08-07T08:15:06.721Z,1012.04
2022-08-07T08:20:16.458Z,1012.06
2022-08-07T08:25:04.637Z,1012.12
2022-08-07T08:30:05.136Z,1011.95
2022-08-07T08:35:03.312Z,1011.87
2022-08-07T08:40:04.356Z,1011.85
2022-08-07T08:45:04.036Z,1012.16
2022-08-07T08:50:05.279Z,1012.16
2022-08-07T08:55:04.583Z,1012.29
2022-08-07T09:00:06.303Z,1012.41
2022-08-07T09:05:03.148Z,1012.37
2022-08-07T09:10:04.273Z,1012.42
2022-08-07T09:16:21.042Z,1012.37
2022-08-07T09:20:09.391Z,1012.65
2022-08-07T09:25:06.122Z,1012.83
2022-08-07T09:30:08.196Z,1012.96
2022-08-07T09:35:04.526Z,1013.1
2022-08-07T09:40:04.354Z,1012.98
2022-08-07T09:47:26.502Z,1012.96
2022-08-07T09:50:18.791Z,1013.42
2022-08-07T09:55:03.206Z,1013.38
2022-08-07T10:00:04.647Z,1013.26
2022-08-07T10:05:12.286Z,1013.36
2022-08-07T10:10:04.273Z,1014.01
2022-08-07T10:15:03.228Z,1014.01
2022-08-07T10:20:04.510Z,1013.93
2022-08-07T10:25:03.197Z,1013.57
2022-08-07T10:30:06.379Z,1013.67
2022-08-07T10:35:03.123Z,1013.79
2022-08-07T10:40:06.297Z,1014.05
2022-08-07T10:45:03.196Z,1014.18
2022-08-07T10:50:04.346Z,1014.51
2022-08-07T10:55:20.777Z,1014.5
2022-08-07T11:00:04.754Z,1014.41
2022-08-07T11:05:05.435Z,1014.33
2022-08-07T11:10:06.798Z,1014.41
2022-08-07T11:15:03.227Z,1014.55
2022-08-07T11:20:04.335Z,1014.35
2022-08-07T11:25:06.455Z,1014.28
2022-08-07T11:30:10.265Z,1014.74
2022-08-07T11:35:03.192Z,1014.65
2022-08-07T11:40:04.344Z,1014.48
2022-08-07T11:45:03.480Z,1014.14
2022-08-07T11:50:25.708Z,1014.39
2022-08-07T11:55:03.217Z,1014.25
2022-08-07T12:00:09.081Z,1014.33
2022-08-07T12:05:03.223Z,1014.46
2022-08-07T12:10:05.726Z,1014.37
2022-08-07T12:15:03.212Z,1014.32
2022-08-07T12:20:08.762Z,1014.37
2022-08-07T12:25:07.644Z,1015.13
2022-08-07T12:30:04.788Z,1015.12
2022-08-07T12:35:03.251Z,1015.04
2022-08-07T12:40:04.481Z,1015.11
2022-08-07T12:45:04.401Z,1014.4
2022-08-07T12:50:33.604Z,1013.73
2022-08-07T12:55:03.885Z,1014.36
2022-08-07T13:00:04.792Z,1014.77
2022-08-07T13:05:06.420Z,1014.64
2022-08-07T13:10:11.126Z,1014.79
2022-08-07T13:15:04.395Z,1014.93
2022-08-07T13:20:04.354Z,1014.79
2022-08-07T13:25:03.333Z,1014.54
2022-08-07T13:30:04.677Z,1014.69
2022-08-07T13:35:08.585Z,1015.37
2022-08-07T13:40:34.511Z,1015.15
2022-08-07T13:45:11.908Z,1014.67
2022-08-07T13:50:31.880Z,1014.45
2022-08-07T13:55:03.308Z,1014.73
2022-08-07T14:00:05.490Z,1015.07
2022-08-07T14:05:03.295Z,1014.37
2022-08-07T14:10:15.581Z,1013.93
2022-08-07T14:15:03.400Z,1013.9
2022-08-07T14:20:39.514Z,1013.85
2022-08-07T14:25:03.328Z,1014.0
2022-08-07T14:30:10.361Z,1014.18
2022-08-07T14:35:03.846Z,1014.27
2022-08-07T14:45:21.005Z,1014.37
2022-08-07T14:50:04.331Z,1014.46
2022-08-07T14:55:03.253Z,1014.28
2022-08-07T15:00:06.739Z,1013.8
2022-08-07T15:05:03.301Z,1013.47
2022-08-07T15:10:04.974Z,1013.38
2022-08-07T15:15:07.513Z,1013.21
2022-08-07T15:20:32.082Z,1013.22
2022-08-07T15:25:16.451Z,1013.17
2022-08-07T15:35:04.612Z,1013.67
2022-08-07T15:40:04.607Z,1013.96
2022-08-07T15:45:03.225Z,1014.11
2022-08-07T15:55:03.783Z,1013.11
2022-08-07T16:00:06.830Z,1012.86
2022-08-07T16:05:03.201Z,1012.74
2022-08-07T16:10:04.597Z,1012.77
2022-08-07T16:15:03.320Z,1013.04
2022-08-07T16:20:04.292Z,1012.75
2022-08-07T16:25:03.192Z,1012.55
2022-08-07T16:30:08.122Z,1012.5
2022-08-07T16:35:03.148Z,1012.4
2022-08-07T16:40:05.420Z,1012.31
2022-08-07T16:45:14.551Z,1012.42
2022-08-07T16:50:19.743Z,1012.54
2022-08-07T16:55:08.293Z,1012.47
2022-08-07T17:00:04.507Z,1012.44
2022-08-07T17:05:03.252Z,1012.21
2022-08-07T17:10:09.126Z,1011.99
2022-08-07T17:15:04.155Z,1011.84
2022-08-07T17:20:14.243Z,1011.92
2022-08-07T17:25:04.468Z,1012.18
2022-08-07T17:30:13.330Z,1011.76
2022-08-07T17:35:41.643Z,1011.54
2022-08-07T17:40:05.584Z,1011.7
2022-08-07T17:45:03.240Z,1011.93
2022-08-07T17:50:05.346Z,1012.1
2022-08-07T17:55:04.374Z,1012.2
2022-08-07T18:00:05.465Z,1012.03
2022-08-07T18:05:20.619Z,1011.63
2022-08-07T18:10:10.092Z,1011.65
2022-08-07T18:15:06.086Z,1011.78
2022-08-07T18:21:05.610Z,1011.52
2022-08-07T18:25:19.595Z,1011.34
2022-08-07T18:30:30.490Z,1011.54
2022-08-07T18:35:03.282Z,1011.54
2022-08-07T18:40:06.228Z,1011.53
2022-08-07T18:45:40.791Z,1011.67
2022-08-07T18:50:18.842Z,1011.53
2022-08-07T18:55:40.358Z,1011.52
2022-08-07T19:00:33.585Z,1011.5
2022-08-07T19:05:10.577Z,1011.54
2022-08-07T19:10:04.430Z,1011.54
2022-08-07T19:15:03.210Z,1011.49
2022-08-07T19:20:04.517Z,1011.39
2022-08-07T19:25:05.852Z,1011.43
2022-08-07T19:30:59.873Z,1011.44
2022-08-07T19:35:03.347Z,1011.36
2022-08-07T19:40:04.514Z,1011.41
2022-08-07T19:45:08.022Z,1011.43
2022-08-07T19:50:41.850Z,1011.46
2022-08-07T19:55:03.204Z,1011.51
2022-08-07T20:00:08.685Z,1011.69
2022-08-07T20:05:03.240Z,1011.73
2022-08-07T20:10:34.839Z,1011.79
2022-08-07T20:15:03.551Z,1011.67
2022-08-07T20:20:04.290Z,1011.64
2022-08-07T20:25:03.237Z,1011.6
2022-08-07T20:30:07.742Z,1011.55
2022-08-07T20:35:07.580Z,1011.67
2022-08-07T20:40:05.581Z,1011.71
2022-08-07T20:45:04.428Z,1011.72
2022-08-07T20:50:04.363Z,1011.7
2022-08-07T20:55:03.198Z,1011.7
2022-08-07T21:00:09.126Z,1011.68
2022-08-07T21:05:04.594Z,1011.76
2022-08-07T21:10:04.522Z,1011.82
2022-08-07T21:15:03.304Z,1011.98
2022-08-07T21:20:06.035Z,1012.15
2022-08-07T21:25:04.607Z,1012.22
2022-08-07T21:30:05.120Z,1012.2
2022-08-07T21:35:04.361Z,1012.15
2022-08-07T21:40:04.520Z,1012.14
2022-08-07T21:45:08.307Z,1012.17
2022-08-07T21:50:04.319Z,1012.08
2022-08-07T21:55:03.302Z,1012.04
2022-08-07T22:00:06.069Z,1012.06
2022-08-07T22:05:03.167Z,1012.12
2022-08-07T22:10:04.437Z,1012.11
2022-08-07T22:15:04.302Z,1012.24
2022-08-07T22:20:04.744Z,1012.25
2022-08-07T22:25:03.411Z,1012.27
2022-08-07T22:30:06.340Z,1012.35
2022-08-07T22:35:03.164Z,1012.36
2022-08-07T22:40:05.015Z,1012.35
2022-08-07T22:45:03.569Z,1012.35
2022-08-07T22:50:04.421Z,1012.35
2022-08-07T22:55:15.013Z,1012.35
2022-08-07T23:00:05.603Z,1012.47
2022-08-07T23:06:05.189Z,1012.57
2022-08-07T23:10:35.226Z,1012.69
2022-08-07T23:15:03.317Z,1012.76
2022-08-07T23:20:04.544Z,1012.75
2022-08-07T23:25:03.139Z,1012.86
2022-08-07T23:30:36.569Z,1013.12
2022-08-07T23:35:03.214Z,1013.1
2022-08-07T23:40:04.543Z,1013.06
2022-08-07T23:45:03.366Z,1013.04
2022-08-07T23:50:04.421Z,1013.1
2022-08-07T23:55:04.624Z,1013.18
